sensor_id;sensor_type;location;lat;lon;timestamp;P1;durP1;ratioP1;P2;durP2;ratioP2
37997;SDS011;24079;51.824;4.682;2023-04-15T00:01:19;11.68;;;4.15;;
37997;SDS011;24079;51.824;4.682;2023-04-15T00:03:44;8.75;;;4.15;;
37997;SDS011;24079;51.824;4.682;2023-04-15T00:06:11;14.05;;;4.50;;
37997;SDS011;24079;51.824;4.682;2023-04-15T00:08:37;14.65;;;4.40;;
37997;SDS011;24079;51.824;4.682;2023-04-15T00:11:03;15.07;;;4.93;;
37997;SDS011;24079;51.824;4.682;2023-04-15T00:13:30;11.90;;;4.18;;
37997;SDS011;24079;51.824;4.682;2023-04-15T00:15:57;11.60;;;4.05;;
37997;SDS011;24079;51.824;4.682;2023-04-15T00:18:23;13.57;;;4.78;;
37997;SDS011;24079;51.824;4.682;2023-04-15T00:20:49;16.52;;;4.50;;
37997;SDS011;24079;51.824;4.682;2023-04-15T00:23:15;11.63;;;4.75;;
37997;SDS011;24079;51.824;4.682;2023-04-15T00:25:40;16.25;;;5.03;;
37997;SDS011;24079;51.824;4.682;2023-04-15T00:28:06;13.27;;;4.57;;
37997;SDS011;24079;51.824;4.682;2023-04-15T00:30:32;9.75;;;4.55;;
37997;SDS011;24079;51.824;4.682;2023-04-15T00:32:58;11.50;;;4.72;;
37997;SDS011;24079;51.824;4.682;2023-04-15T00:35:26;12.93;;;4.70;;
37997;SDS011;24079;51.824;4.682;2023-04-15T00:37:51;11.65;;;4.97;;
37997;SDS011;24079;51.824;4.682;2023-04-15T00:40:18;15.27;;;4.70;;
37997;SDS011;24079;51.824;4.682;2023-04-15T00:42:45;13.73;;;4.50;;
37997;SDS011;24079;51.824;4.682;2023-04-15T00:45:11;16.63;;;4.60;;
37997;SDS011;24079;51.824;4.682;2023-04-15T00:47:38;13.75;;;4.72;;
37997;SDS011;24079;51.824;4.682;2023-04-15T00:50:07;12.48;;;4.55;;
37997;SDS011;24079;51.824;4.682;2023-04-15T00:52:34;13.38;;;4.40;;
37997;SDS011;24079;51.824;4.682;2023-04-15T00:55:00;12.68;;;4.72;;
37997;SDS011;24079;51.824;4.682;2023-04-15T00:57:26;8.27;;;3.63;;
37997;SDS011;24079;51.824;4.682;2023-04-15T00:59:53;12.85;;;4.45;;
37997;SDS011;24079;51.824;4.682;2023-04-15T01:02:21;14.65;;;4.88;;
37997;SDS011;24079;51.824;4.682;2023-04-15T01:04:47;14.93;;;5.47;;
37997;SDS011;24079;51.824;4.682;2023-04-15T01:07:13;16.50;;;5.00;;
37997;SDS011;24079;51.824;4.682;2023-04-15T01:09:39;11.38;;;5.28;;
37997;SDS011;24079;51.824;4.682;2023-04-15T01:12:05;18.05;;;5.50;;
37997;SDS011;24079;51.824;4.682;2023-04-15T01:14:33;12.98;;;4.80;;
37997;SDS011;24079;51.824;4.682;2023-04-15T01:16:58;14.77;;;5.45;;
37997;SDS011;24079;51.824;4.682;2023-04-15T01:19:24;13.80;;;5.57;;
37997;SDS011;24079;51.824;4.682;2023-04-15T01:21:51;12.60;;;5.32;;
37997;SDS011;24079;51.824;4.682;2023-04-15T01:24:17;13.15;;;5.00;;
37997;SDS011;24079;51.824;4.682;2023-04-15T01:26:44;13.77;;;5.22;;
37997;SDS011;24079;51.824;4.682;2023-04-15T01:29:11;15.55;;;5.40;;
37997;SDS011;24079;51.824;4.682;2023-04-15T01:31:37;12.88;;;5.28;;
37997;SDS011;24079;51.824;4.682;2023-04-15T01:34:03;15.98;;;5.95;;
37997;SDS011;24079;51.824;4.682;2023-04-15T01:36:29;11.93;;;5.47;;
37997;SDS011;24079;51.824;4.682;2023-04-15T01:38:56;14.43;;;6.05;;
37997;SDS011;24079;51.824;4.682;2023-04-15T01:41:26;11.77;;;5.68;;
37997;SDS011;24079;51.824;4.682;2023-04-15T01:43:52;16.50;;;5.68;;
37997;SDS011;24079;51.824;4.682;2023-04-15T01:46:19;16.20;;;5.82;;
37997;SDS011;24079;51.824;4.682;2023-04-15T01:48:45;18.10;;;5.82;;
37997;SDS011;24079;51.824;4.682;2023-04-15T01:51:11;18.65;;;6.25;;
37997;SDS011;24079;51.824;4.682;2023-04-15T01:53:37;13.65;;;6.00;;
37997;SDS011;24079;51.824;4.682;2023-04-15T01:56:03;11.40;;;5.43;;
37997;SDS011;24079;51.824;4.682;2023-04-15T01:58:29;17.85;;;6.47;;
37997;SDS011;24079;51.824;4.682;2023-04-15T02:00:55;13.15;;;6.15;;
37997;SDS011;24079;51.824;4.682;2023-04-15T02:03:21;14.27;;;6.00;;
37997;SDS011;24079;51.824;4.682;2023-04-15T02:05:47;13.60;;;5.95;;
37997;SDS011;24079;51.824;4.682;2023-04-15T02:08:13;11.60;;;5.82;;
37997;SDS011;24079;51.824;4.682;2023-04-15T02:10:38;13.77;;;5.85;;
37997;SDS011;24079;51.824;4.682;2023-04-15T02:13:04;11.00;;;6.18;;
37997;SDS011;24079;51.824;4.682;2023-04-15T02:15:30;14.18;;;6.82;;
37997;SDS011;24079;51.824;4.682;2023-04-15T02:17:57;14.45;;;6.68;;
37997;SDS011;24079;51.824;4.682;2023-04-15T02:20:24;13.45;;;6.28;;
37997;SDS011;24079;51.824;4.682;2023-04-15T02:22:50;13.05;;;6.15;;
37997;SDS011;24079;51.824;4.682;2023-04-15T02:25:16;17.00;;;7.03;;
37997;SDS011;24079;51.824;4.682;2023-04-15T02:27:42;13.93;;;6.13;;
37997;SDS011;24079;51.824;4.682;2023-04-15T02:30:08;11.52;;;5.68;;
37997;SDS011;24079;51.824;4.682;2023-04-15T02:32:34;16.48;;;6.78;;
37997;SDS011;24079;51.824;4.682;2023-04-15T02:35:05;11.15;;;6.55;;
37997;SDS011;24079;51.824;4.682;2023-04-15T02:37:32;14.57;;;6.80;;
37997;SDS011;24079;51.824;4.682;2023-04-15T02:40:01;19.92;;;7.38;;
37997;SDS011;24079;51.824;4.682;2023-04-15T02:42:26;14.30;;;7.10;;
37997;SDS011;24079;51.824;4.682;2023-04-15T02:44:54;13.10;;;6.82;;
37997;SDS011;24079;51.824;4.682;2023-04-15T02:47:20;13.30;;;6.47;;
37997;SDS011;24079;51.824;4.682;2023-04-15T02:49:46;14.00;;;6.60;;
37997;SDS011;24079;51.824;4.682;2023-04-15T02:52:11;14.50;;;6.85;;
37997;SDS011;24079;51.824;4.682;2023-04-15T02:54:37;14.00;;;7.05;;
37997;SDS011;24079;51.824;4.682;2023-04-15T02:57:03;14.20;;;6.80;;
37997;SDS011;24079;51.824;4.682;2023-04-15T02:59:30;13.85;;;7.15;;
37997;SDS011;24079;51.824;4.682;2023-04-15T03:01:56;12.63;;;6.70;;
37997;SDS011;24079;51.824;4.682;2023-04-15T03:04:24;12.95;;;6.78;;
37997;SDS011;24079;51.824;4.682;2023-04-15T03:06:50;15.75;;;7.47;;
37997;SDS011;24079;51.824;4.682;2023-04-15T03:09:16;12.45;;;7.00;;
37997;SDS011;24079;51.824;4.682;2023-04-15T03:11:42;18.02;;;7.78;;
37997;SDS011;24079;51.824;4.682;2023-04-15T03:14:07;19.77;;;7.78;;
37997;SDS011;24079;51.824;4.682;2023-04-15T03:16:33;13.95;;;7.85;;
37997;SDS011;24079;51.824;4.682;2023-04-15T03:18:58;16.05;;;7.65;;
37997;SDS011;24079;51.824;4.682;2023-04-15T03:21:24;12.57;;;7.43;;
37997;SDS011;24079;51.824;4.682;2023-04-15T03:23:50;11.88;;;6.68;;
37997;SDS011;24079;51.824;4.682;2023-04-15T03:26:23;17.15;;;8.00;;
37997;SDS011;24079;51.824;4.682;2023-04-15T03:28:56;11.38;;;7.13;;
37997;SDS011;24079;51.824;4.682;2023-04-15T03:31:21;12.15;;;7.53;;
37997;SDS011;24079;51.824;4.682;2023-04-15T03:33:47;14.70;;;7.00;;
37997;SDS011;24079;51.824;4.682;2023-04-15T03:36:13;13.68;;;7.82;;
37997;SDS011;24079;51.824;4.682;2023-04-15T03:38:38;11.10;;;7.03;;
37997;SDS011;24079;51.824;4.682;2023-04-15T03:41:04;13.18;;;6.18;;
37997;SDS011;24079;51.824;4.682;2023-04-15T03:43:30;12.50;;;6.88;;
37997;SDS011;24079;51.824;4.682;2023-04-15T03:45:55;10.25;;;6.25;;
37997;SDS011;24079;51.824;4.682;2023-04-15T03:48:21;12.68;;;6.80;;
37997;SDS011;24079;51.824;4.682;2023-04-15T03:50:47;14.25;;;7.35;;
37997;SDS011;24079;51.824;4.682;2023-04-15T03:53:13;13.05;;;6.25;;
37997;SDS011;24079;51.824;4.682;2023-04-15T03:55:40;13.20;;;6.32;;
37997;SDS011;24079;51.824;4.682;2023-04-15T03:58:06;11.88;;;6.65;;
37997;SDS011;24079;51.824;4.682;2023-04-15T04:00:32;12.00;;;6.72;;
37997;SDS011;24079;51.824;4.682;2023-04-15T04:02:58;9.85;;;6.43;;
37997;SDS011;24079;51.824;4.682;2023-04-15T04:05:24;11.23;;;6.20;;
37997;SDS011;24079;51.824;4.682;2023-04-15T04:07:50;11.98;;;6.45;;
37997;SDS011;24079;51.824;4.682;2023-04-15T04:10:16;12.88;;;6.72;;
37997;SDS011;24079;51.824;4.682;2023-04-15T04:12:43;13.13;;;6.25;;
37997;SDS011;24079;51.824;4.682;2023-04-15T04:15:09;14.43;;;6.82;;
37997;SDS011;24079;51.824;4.682;2023-04-15T04:17:35;9.73;;;6.07;;
37997;SDS011;24079;51.824;4.682;2023-04-15T04:20:02;14.05;;;6.13;;
37997;SDS011;24079;51.824;4.682;2023-04-15T04:22:28;11.77;;;6.55;;
37997;SDS011;24079;51.824;4.682;2023-04-15T04:24:53;10.10;;;6.18;;
37997;SDS011;24079;51.824;4.682;2023-04-15T04:27:19;15.32;;;6.22;;
37997;SDS011;24079;51.824;4.682;2023-04-15T04:29:45;13.68;;;6.80;;
37997;SDS011;24079;51.824;4.682;2023-04-15T04:32:11;13.07;;;6.18;;
37997;SDS011;24079;51.824;4.682;2023-04-15T04:34:37;10.02;;;6.22;;
37997;SDS011;24079;51.824;4.682;2023-04-15T04:37:03;14.32;;;6.03;;
37997;SDS011;24079;51.824;4.682;2023-04-15T04:39:29;14.55;;;6.82;;
37997;SDS011;24079;51.824;4.682;2023-04-15T04:41:55;10.48;;;6.65;;
37997;SDS011;24079;51.824;4.682;2023-04-15T04:44:21;11.20;;;6.70;;
37997;SDS011;24079;51.824;4.682;2023-04-15T04:46:47;11.10;;;7.00;;
37997;SDS011;24079;51.824;4.682;2023-04-15T04:49:13;13.77;;;6.88;;
37997;SDS011;24079;51.824;4.682;2023-04-15T04:51:39;12.52;;;6.28;;
37997;SDS011;24079;51.824;4.682;2023-04-15T04:54:06;15.38;;;6.93;;
37997;SDS011;24079;51.824;4.682;2023-04-15T04:56:31;11.63;;;7.03;;
37997;SDS011;24079;51.824;4.682;2023-04-15T04:58:58;16.40;;;7.13;;
37997;SDS011;24079;51.824;4.682;2023-04-15T05:01:24;14.65;;;7.00;;
37997;SDS011;24079;51.824;4.682;2023-04-15T05:03:51;13.55;;;7.03;;
37997;SDS011;24079;51.824;4.682;2023-04-15T05:06:17;14.38;;;7.22;;
37997;SDS011;24079;51.824;4.682;2023-04-15T05:08:42;11.02;;;7.05;;
37997;SDS011;24079;51.824;4.682;2023-04-15T05:11:10;13.82;;;7.82;;
37997;SDS011;24079;51.824;4.682;2023-04-15T05:13:37;11.55;;;6.90;;
37997;SDS011;24079;51.824;4.682;2023-04-15T05:16:03;14.07;;;6.95;;
37997;SDS011;24079;51.824;4.682;2023-04-15T05:18:30;12.05;;;7.20;;
37997;SDS011;24079;51.824;4.682;2023-04-15T05:20:56;13.95;;;7.55;;
37997;SDS011;24079;51.824;4.682;2023-04-15T05:23:23;13.27;;;7.55;;
37997;SDS011;24079;51.824;4.682;2023-04-15T05:25:50;13.50;;;7.65;;
37997;SDS011;24079;51.824;4.682;2023-04-15T05:28:16;13.68;;;7.85;;
37997;SDS011;24079;51.824;4.682;2023-04-15T05:30:42;19.17;;;8.10;;
37997;SDS011;24079;51.824;4.682;2023-04-15T05:33:08;14.02;;;7.82;;
37997;SDS011;24079;51.824;4.682;2023-04-15T05:35:33;11.45;;;7.45;;
37997;SDS011;24079;51.824;4.682;2023-04-15T05:38:00;14.63;;;7.80;;
37997;SDS011;24079;51.824;4.682;2023-04-15T05:40:26;14.45;;;7.53;;
37997;SDS011;24079;51.824;4.682;2023-04-15T05:42:52;14.02;;;7.80;;
37997;SDS011;24079;51.824;4.682;2023-04-15T05:45:18;10.65;;;7.45;;
37997;SDS011;24079;51.824;4.682;2023-04-15T05:47:44;12.43;;;7.07;;
37997;SDS011;24079;51.824;4.682;2023-04-15T05:50:11;12.07;;;7.00;;
37997;SDS011;24079;51.824;4.682;2023-04-15T05:52:37;13.48;;;7.97;;
37997;SDS011;24079;51.824;4.682;2023-04-15T05:55:03;13.73;;;7.68;;
37997;SDS011;24079;51.824;4.682;2023-04-15T05:57:30;14.90;;;7.72;;
37997;SDS011;24079;51.824;4.682;2023-04-15T05:59:56;20.30;;;7.93;;
37997;SDS011;24079;51.824;4.682;2023-04-15T06:02:22;12.45;;;7.32;;
37997;SDS011;24079;51.824;4.682;2023-04-15T06:04:49;10.45;;;6.75;;
37997;SDS011;24079;51.824;4.682;2023-04-15T06:07:15;12.05;;;6.57;;
37997;SDS011;24079;51.824;4.682;2023-04-15T06:09:41;13.52;;;7.13;;
37997;SDS011;24079;51.824;4.682;2023-04-15T06:12:07;11.90;;;6.78;;
37997;SDS011;24079;51.824;4.682;2023-04-15T06:14:36;13.85;;;7.20;;
37997;SDS011;24079;51.824;4.682;2023-04-15T06:17:02;11.25;;;6.28;;
37997;SDS011;24079;51.824;4.682;2023-04-15T06:19:28;12.23;;;6.90;;
37997;SDS011;24079;51.824;4.682;2023-04-15T06:21:55;13.52;;;6.63;;
37997;SDS011;24079;51.824;4.682;2023-04-15T06:24:22;9.07;;;6.95;;
37997;SDS011;24079;51.824;4.682;2023-04-15T06:26:48;9.52;;;6.38;;
37997;SDS011;24079;51.824;4.682;2023-04-15T06:29:15;11.55;;;6.22;;
37997;SDS011;24079;51.824;4.682;2023-04-15T06:31:40;10.23;;;6.68;;
37997;SDS011;24079;51.824;4.682;2023-04-15T06:34:06;11.05;;;7.03;;
37997;SDS011;24079;51.824;4.682;2023-04-15T06:36:32;9.70;;;5.90;;
37997;SDS011;24079;51.824;4.682;2023-04-15T06:38:57;10.35;;;6.65;;
37997;SDS011;24079;51.824;4.682;2023-04-15T06:41:23;14.05;;;7.50;;
37997;SDS011;24079;51.824;4.682;2023-04-15T06:43:49;11.43;;;6.90;;
37997;SDS011;24079;51.824;4.682;2023-04-15T06:46:15;11.82;;;6.72;;
37997;SDS011;24079;51.824;4.682;2023-04-15T06:48:41;8.90;;;6.00;;
37997;SDS011;24079;51.824;4.682;2023-04-15T06:51:06;9.77;;;6.30;;
37997;SDS011;24079;51.824;4.682;2023-04-15T06:53:33;11.13;;;6.78;;
37997;SDS011;24079;51.824;4.682;2023-04-15T06:56:00;13.82;;;7.43;;
37997;SDS011;24079;51.824;4.682;2023-04-15T06:58:26;13.90;;;6.43;;
37997;SDS011;24079;51.824;4.682;2023-04-15T07:00:51;10.43;;;6.32;;
37997;SDS011;24079;51.824;4.682;2023-04-15T07:03:17;14.07;;;7.05;;
37997;SDS011;24079;51.824;4.682;2023-04-15T07:05:43;14.38;;;6.78;;
37997;SDS011;24079;51.824;4.682;2023-04-15T07:08:09;8.88;;;6.22;;
37997;SDS011;24079;51.824;4.682;2023-04-15T07:10:34;10.82;;;6.15;;
37997;SDS011;24079;51.824;4.682;2023-04-15T07:13:00;11.18;;;6.40;;
37997;SDS011;24079;51.824;4.682;2023-04-15T07:15:26;10.90;;;6.30;;
37997;SDS011;24079;51.824;4.682;2023-04-15T07:17:52;9.45;;;6.50;;
37997;SDS011;24079;51.824;4.682;2023-04-15T07:20:18;10.90;;;6.85;;
37997;SDS011;24079;51.824;4.682;2023-04-15T07:22:44;8.48;;;5.85;;
37997;SDS011;24079;51.824;4.682;2023-04-15T07:25:10;9.95;;;6.40;;
37997;SDS011;24079;51.824;4.682;2023-04-15T07:27:36;9.20;;;6.53;;
37997;SDS011;24079;51.824;4.682;2023-04-15T07:30:02;10.48;;;6.50;;
37997;SDS011;24079;51.824;4.682;2023-04-15T07:32:28;10.23;;;6.55;;
37997;SDS011;24079;51.824;4.682;2023-04-15T07:34:53;10.30;;;6.50;;
37997;SDS011;24079;51.824;4.682;2023-04-15T07:37:19;11.07;;;7.10;;
37997;SDS011;24079;51.824;4.682;2023-04-15T07:39:45;11.70;;;6.13;;
37997;SDS011;24079;51.824;4.682;2023-04-15T07:42:11;7.22;;;5.72;;
37997;SDS011;24079;51.824;4.682;2023-04-15T07:44:37;10.88;;;6.10;;
37997;SDS011;24079;51.824;4.682;2023-04-15T07:47:03;8.10;;;6.00;;
37997;SDS011;24079;51.824;4.682;2023-04-15T07:49:28;10.20;;;6.43;;
37997;SDS011;24079;51.824;4.682;2023-04-15T07:51:54;9.02;;;6.22;;
37997;SDS011;24079;51.824;4.682;2023-04-15T07:54:21;7.00;;;5.63;;
37997;SDS011;24079;51.824;4.682;2023-04-15T07:56:47;10.35;;;5.75;;
37997;SDS011;24079;51.824;4.682;2023-04-15T07:59:12;8.02;;;6.00;;
37997;SDS011;24079;51.824;4.682;2023-04-15T08:01:41;7.82;;;5.63;;
37997;SDS011;24079;51.824;4.682;2023-04-15T08:04:08;10.02;;;5.90;;
37997;SDS011;24079;51.824;4.682;2023-04-15T08:06:34;11.70;;;6.88;;
37997;SDS011;24079;51.824;4.682;2023-04-15T08:09:03;7.80;;;5.82;;
37997;SDS011;24079;51.824;4.682;2023-04-15T08:11:29;7.82;;;6.55;;
37997;SDS011;24079;51.824;4.682;2023-04-15T08:13:56;12.40;;;6.40;;
37997;SDS011;24079;51.824;4.682;2023-04-15T08:16:23;10.82;;;6.50;;
37997;SDS011;24079;51.824;4.682;2023-04-15T08:18:50;8.00;;;6.28;;
37997;SDS011;24079;51.824;4.682;2023-04-15T08:21:17;8.75;;;6.32;;
37997;SDS011;24079;51.824;4.682;2023-04-15T08:23:44;10.57;;;6.93;;
37997;SDS011;24079;51.824;4.682;2023-04-15T08:26:11;7.18;;;5.55;;
37997;SDS011;24079;51.824;4.682;2023-04-15T08:28:39;12.45;;;6.78;;
37997;SDS011;24079;51.824;4.682;2023-04-15T08:31:05;7.35;;;5.85;;
37997;SDS011;24079;51.824;4.682;2023-04-15T08:33:32;14.40;;;6.13;;
37997;SDS011;24079;51.824;4.682;2023-04-15T08:35:58;11.63;;;6.53;;
37997;SDS011;24079;51.824;4.682;2023-04-15T08:38:24;7.70;;;6.13;;
37997;SDS011;24079;51.824;4.682;2023-04-15T08:40:50;8.85;;;5.88;;
37997;SDS011;24079;51.824;4.682;2023-04-15T08:43:21;9.43;;;6.57;;
37997;SDS011;24079;51.824;4.682;2023-04-15T08:45:51;8.27;;;6.85;;
37997;SDS011;24079;51.824;4.682;2023-04-15T08:48:17;11.38;;;6.60;;
37997;SDS011;24079;51.824;4.682;2023-04-15T08:50:44;14.30;;;7.85;;
37997;SDS011;24079;51.824;4.682;2023-04-15T08:53:11;12.02;;;7.30;;
37997;SDS011;24079;51.824;4.682;2023-04-15T08:55:44;12.30;;;7.85;;
37997;SDS011;24079;51.824;4.682;2023-04-15T08:58:11;10.38;;;7.57;;
37997;SDS011;24079;51.824;4.682;2023-04-15T09:00:39;12.75;;;8.40;;
37997;SDS011;24079;51.824;4.682;2023-04-15T09:03:05;12.48;;;8.05;;
37997;SDS011;24079;51.824;4.682;2023-04-15T09:05:32;12.63;;;8.10;;
37997;SDS011;24079;51.824;4.682;2023-04-15T09:07:59;11.10;;;7.30;;
37997;SDS011;24079;51.824;4.682;2023-04-15T09:10:26;12.52;;;7.32;;
37997;SDS011;24079;51.824;4.682;2023-04-15T09:12:53;10.13;;;6.72;;
37997;SDS011;24079;51.824;4.682;2023-04-15T09:15:19;10.32;;;7.00;;
37997;SDS011;24079;51.824;4.682;2023-04-15T09:17:46;13.40;;;7.80;;
37997;SDS011;24079;51.824;4.682;2023-04-15T09:20:13;11.07;;;6.72;;
37997;SDS011;24079;51.824;4.682;2023-04-15T09:22:41;8.75;;;6.13;;
37997;SDS011;24079;51.824;4.682;2023-04-15T09:27:59;9.30;;;6.13;;
37997;SDS011;24079;51.824;4.682;2023-04-15T09:30:28;9.55;;;5.72;;
37997;SDS011;24079;51.824;4.682;2023-04-15T09:32:56;10.35;;;6.43;;
37997;SDS011;24079;51.824;4.682;2023-04-15T09:35:24;8.95;;;6.05;;
37997;SDS011;24079;51.824;4.682;2023-04-15T09:37:51;10.82;;;5.70;;
37997;SDS011;24079;51.824;4.682;2023-04-15T09:40:40;11.38;;;6.20;;
37997;SDS011;24079;51.824;4.682;2023-04-15T09:43:07;8.40;;;4.78;;
37997;SDS011;24079;51.824;4.682;2023-04-15T09:45:37;12.18;;;5.40;;
37997;SDS011;24079;51.824;4.682;2023-04-15T09:48:19;6.05;;;3.30;;
37997;SDS011;24079;51.824;4.682;2023-04-15T09:50:49;6.72;;;4.13;;
37997;SDS011;24079;51.824;4.682;2023-04-15T09:53:21;10.65;;;4.30;;
37997;SDS011;24079;51.824;4.682;2023-04-15T09:55:50;9.73;;;4.95;;
37997;SDS011;24079;51.824;4.682;2023-04-15T09:58:18;9.52;;;4.57;;
37997;SDS011;24079;51.824;4.682;2023-04-15T10:00:46;9.18;;;4.60;;
37997;SDS011;24079;51.824;4.682;2023-04-15T10:03:20;7.97;;;4.10;;
37997;SDS011;24079;51.824;4.682;2023-04-15T10:05:51;8.20;;;4.50;;
37997;SDS011;24079;51.824;4.682;2023-04-15T10:08:22;6.68;;;4.25;;
37997;SDS011;24079;51.824;4.682;2023-04-15T10:10:49;5.50;;;3.83;;
37997;SDS011;24079;51.824;4.682;2023-04-15T10:13:17;7.50;;;4.32;;
37997;SDS011;24079;51.824;4.682;2023-04-15T10:18:22;7.53;;;4.63;;
37997;SDS011;24079;51.824;4.682;2023-04-15T10:20:51;6.15;;;4.57;;
37997;SDS011;24079;51.824;4.682;2023-04-15T10:23:19;6.68;;;4.55;;
37997;SDS011;24079;51.824;4.682;2023-04-15T10:25:45;6.93;;;3.92;;
37997;SDS011;24079;51.824;4.682;2023-04-15T10:28:13;4.85;;;2.92;;
37997;SDS011;24079;51.824;4.682;2023-04-15T10:30:40;7.88;;;2.90;;
37997;SDS011;24079;51.824;4.682;2023-04-15T10:33:07;7.03;;;3.10;;
37997;SDS011;24079;51.824;4.682;2023-04-15T10:35:35;5.70;;;3.00;;
37997;SDS011;24079;51.824;4.682;2023-04-15T10:38:01;5.90;;;2.72;;
37997;SDS011;24079;51.824;4.682;2023-04-15T10:40:47;6.15;;;2.88;;
37997;SDS011;24079;51.824;4.682;2023-04-15T10:43:24;6.20;;;3.30;;
37997;SDS011;24079;51.824;4.682;2023-04-15T10:45:52;7.00;;;3.05;;
37997;SDS011;24079;51.824;4.682;2023-04-15T10:48:18;7.25;;;3.35;;
37997;SDS011;24079;51.824;4.682;2023-04-15T10:50:54;8.95;;;4.60;;
37997;SDS011;24079;51.824;4.682;2023-04-15T10:53:26;8.27;;;4.75;;
37997;SDS011;24079;51.824;4.682;2023-04-15T10:55:53;7.80;;;4.80;;
37997;SDS011;24079;51.824;4.682;2023-04-15T10:58:22;7.43;;;3.83;;
37997;SDS011;24079;51.824;4.682;2023-04-15T11:00:50;6.75;;;4.40;;
37997;SDS011;24079;51.824;4.682;2023-04-15T11:03:33;8.27;;;4.43;;
37997;SDS011;24079;51.824;4.682;2023-04-15T11:06:03;5.82;;;3.28;;
37997;SDS011;24079;51.824;4.682;2023-04-15T11:11:22;3.28;;;2.17;;
37997;SDS011;24079;51.824;4.682;2023-04-15T11:14:07;5.07;;;2.50;;
37997;SDS011;24079;51.824;4.682;2023-04-15T11:16:43;2.92;;;1.85;;
37997;SDS011;24079;51.824;4.682;2023-04-15T11:19:09;4.07;;;2.00;;
37997;SDS011;24079;51.824;4.682;2023-04-15T11:21:35;3.47;;;1.67;;
37997;SDS011;24079;51.824;4.682;2023-04-15T11:24:01;4.75;;;1.92;;
37997;SDS011;24079;51.824;4.682;2023-04-15T11:26:28;4.53;;;2.17;;
37997;SDS011;24079;51.824;4.682;2023-04-15T11:28:53;3.75;;;2.25;;
37997;SDS011;24079;51.824;4.682;2023-04-15T11:31:19;5.47;;;2.65;;
37997;SDS011;24079;51.824;4.682;2023-04-15T11:36:23;6.38;;;2.95;;
37997;SDS011;24079;51.824;4.682;2023-04-15T11:38:51;6.05;;;2.67;;
37997;SDS011;24079;51.824;4.682;2023-04-15T11:41:21;8.48;;;2.92;;
37997;SDS011;24079;51.824;4.682;2023-04-15T11:43:48;4.60;;;3.00;;
37997;SDS011;24079;51.824;4.682;2023-04-15T11:46:15;7.53;;;3.33;;
37997;SDS011;24079;51.824;4.682;2023-04-15T11:48:42;7.47;;;4.22;;
37997;SDS011;24079;51.824;4.682;2023-04-15T11:51:09;5.80;;;3.92;;
37997;SDS011;24079;51.824;4.682;2023-04-15T11:56:07;6.35;;;4.00;;
37997;SDS011;24079;51.824;4.682;2023-04-15T11:58:35;7.53;;;4.28;;
37997;SDS011;24079;51.824;4.682;2023-04-15T12:01:02;6.78;;;4.68;;
37997;SDS011;24079;51.824;4.682;2023-04-15T12:03:38;5.55;;;4.40;;
37997;SDS011;24079;51.824;4.682;2023-04-15T12:13:52;7.78;;;4.22;;
37997;SDS011;24079;51.824;4.682;2023-04-15T12:16:21;7.10;;;4.53;;
37997;SDS011;24079;51.824;4.682;2023-04-15T12:18:51;8.25;;;4.32;;
37997;SDS011;24079;51.824;4.682;2023-04-15T12:21:20;6.60;;;3.95;;
37997;SDS011;24079;51.824;4.682;2023-04-15T12:23:47;7.40;;;4.15;;
37997;SDS011;24079;51.824;4.682;2023-04-15T12:26:15;9.15;;;4.50;;
37997;SDS011;24079;51.824;4.682;2023-04-15T12:28:42;8.95;;;3.72;;
37997;SDS011;24079;51.824;4.682;2023-04-15T12:31:08;7.40;;;3.90;;
37997;SDS011;24079;51.824;4.682;2023-04-15T12:33:35;5.35;;;3.80;;
37997;SDS011;24079;51.824;4.682;2023-04-15T12:36:02;8.52;;;4.00;;
37997;SDS011;24079;51.824;4.682;2023-04-15T12:38:28;6.93;;;3.67;;
37997;SDS011;24079;51.824;4.682;2023-04-15T12:40:56;8.38;;;3.72;;
37997;SDS011;24079;51.824;4.682;2023-04-15T12:43:23;9.05;;;3.67;;
37997;SDS011;24079;51.824;4.682;2023-04-15T12:45:49;4.75;;;3.22;;
37997;SDS011;24079;51.824;4.682;2023-04-15T12:48:15;7.82;;;3.70;;
37997;SDS011;24079;51.824;4.682;2023-04-15T12:50:42;9.40;;;3.30;;
37997;SDS011;24079;51.824;4.682;2023-04-15T12:53:08;7.50;;;3.67;;
37997;SDS011;24079;51.824;4.682;2023-04-15T12:55:34;8.20;;;3.17;;
37997;SDS011;24079;51.824;4.682;2023-04-15T12:57:59;5.53;;;3.35;;
37997;SDS011;24079;51.824;4.682;2023-04-15T13:00:25;3.35;;;2.63;;
37997;SDS011;24079;51.824;4.682;2023-04-15T13:02:51;5.38;;;2.20;;
37997;SDS011;24079;51.824;4.682;2023-04-15T13:05:18;3.42;;;1.85;;
37997;SDS011;24079;51.824;4.682;2023-04-15T13:07:44;4.78;;;2.30;;
37997;SDS011;24079;51.824;4.682;2023-04-15T13:10:10;3.63;;;2.20;;
37997;SDS011;24079;51.824;4.682;2023-04-15T13:12:36;3.08;;;2.33;;
37997;SDS011;24079;51.824;4.682;2023-04-15T13:15:03;3.55;;;2.20;;
37997;SDS011;24079;51.824;4.682;2023-04-15T13:17:29;5.57;;;2.28;;
37997;SDS011;24079;51.824;4.682;2023-04-15T13:19:55;2.88;;;2.10;;
37997;SDS011;24079;51.824;4.682;2023-04-15T13:22:22;2.85;;;2.08;;
37997;SDS011;24079;51.824;4.682;2023-04-15T13:24:48;5.97;;;2.10;;
37997;SDS011;24079;51.824;4.682;2023-04-15T13:27:13;4.45;;;1.90;;
37997;SDS011;24079;51.824;4.682;2023-04-15T13:29:39;3.05;;;1.50;;
37997;SDS011;24079;51.824;4.682;2023-04-15T13:32:05;4.15;;;1.65;;
37997;SDS011;24079;51.824;4.682;2023-04-15T13:34:31;4.07;;;1.50;;
37997;SDS011;24079;51.824;4.682;2023-04-15T13:36:56;4.28;;;1.65;;
37997;SDS011;24079;51.824;4.682;2023-04-15T13:39:22;4.65;;;2.45;;
37997;SDS011;24079;51.824;4.682;2023-04-15T13:41:48;5.65;;;2.28;;
37997;SDS011;24079;51.824;4.682;2023-04-15T13:44:13;7.15;;;2.00;;
37997;SDS011;24079;51.824;4.682;2023-04-15T13:46:39;4.53;;;2.05;;
37997;SDS011;24079;51.824;4.682;2023-04-15T13:49:06;4.13;;;2.15;;
37997;SDS011;24079;51.824;4.682;2023-04-15T13:51:32;4.03;;;2.10;;
37997;SDS011;24079;51.824;4.682;2023-04-15T13:54:00;5.75;;;1.85;;
37997;SDS011;24079;51.824;4.682;2023-04-15T13:56:25;4.20;;;1.92;;
37997;SDS011;24079;51.824;4.682;2023-04-15T13:58:51;4.63;;;1.80;;
37997;SDS011;24079;51.824;4.682;2023-04-15T14:01:18;8.82;;;1.85;;
37997;SDS011;24079;51.824;4.682;2023-04-15T14:03:44;6.28;;;1.60;;
37997;SDS011;24079;51.824;4.682;2023-04-15T14:06:10;2.70;;;1.33;;
37997;SDS011;24079;51.824;4.682;2023-04-15T14:08:36;3.38;;;1.75;;
37997;SDS011;24079;51.824;4.682;2023-04-15T14:11:03;5.45;;;1.50;;
37997;SDS011;24079;51.824;4.682;2023-04-15T14:13:29;2.88;;;1.25;;
37997;SDS011;24079;51.824;4.682;2023-04-15T14:15:55;2.90;;;1.80;;
37997;SDS011;24079;51.824;4.682;2023-04-15T14:18:21;3.88;;;1.75;;
37997;SDS011;24079;51.824;4.682;2023-04-15T14:20:47;4.50;;;1.77;;
37997;SDS011;24079;51.824;4.682;2023-04-15T14:23:13;3.40;;;1.73;;
37997;SDS011;24079;51.824;4.682;2023-04-15T14:25:39;6.80;;;1.80;;
37997;SDS011;24079;51.824;4.682;2023-04-15T14:28:06;3.13;;;1.80;;
37997;SDS011;24079;51.824;4.682;2023-04-15T14:30:32;3.35;;;1.80;;
37997;SDS011;24079;51.824;4.682;2023-04-15T14:32:58;5.53;;;2.42;;
37997;SDS011;24079;51.824;4.682;2023-04-15T14:35:24;5.35;;;1.75;;
37997;SDS011;24079;51.824;4.682;2023-04-15T14:37:54;5.47;;;2.03;;
37997;SDS011;24079;51.824;4.682;2023-04-15T14:40:20;4.50;;;1.90;;
37997;SDS011;24079;51.824;4.682;2023-04-15T14:42:46;4.70;;;1.80;;
37997;SDS011;24079;51.824;4.682;2023-04-15T14:45:12;6.65;;;2.10;;
37997;SDS011;24079;51.824;4.682;2023-04-15T14:47:38;2.60;;;1.48;;
37997;SDS011;24079;51.824;4.682;2023-04-15T14:50:05;3.33;;;1.55;;
37997;SDS011;24079;51.824;4.682;2023-04-15T14:52:32;3.60;;;1.38;;
37997;SDS011;24079;51.824;4.682;2023-04-15T14:55:06;5.78;;;2.10;;
37997;SDS011;24079;51.824;4.682;2023-04-15T14:57:35;3.03;;;1.50;;
37997;SDS011;24079;51.824;4.682;2023-04-15T15:00:02;3.10;;;1.17;;